Time;durP1;ratioP1;P1;durP2;ratioP2;P2;SDS_P1;SDS_P2;PMS_P1;PMS_P2;Temp;Humidity;BMP_temperature;BMP_pressure;BME280_temperature;BME280_humidity;BME280_pressure;Samples;Min_cycle;Max_cycle;Signal;HPM_P1;HPM_P2
2022/04/19 00:00:21;;;;;;;;;;;4.20;99.90;;;;;;5132502;27;19923;-71
2022/04/19 00:02:47;;;;;;;;;;;4.10;99.90;;;;;;5132533;27;19908;-71
2022/04/19 00:05:13;;;;;;;;;;;4.10;99.90;;;;;;5132593;27;19927;-72
2022/04/19 00:07:39;;;;;;;;;;;4.10;99.90;;;;;;5113901;28;20252;-72
2022/04/19 00:10:06;;;;;;;;;;;4.00;99.90;;;;;;5132456;28;19930;-72
2022/04/19 00:12:32;;;;;;;;;;;4.00;99.90;;;;;;5113667;28;20287;-72
2022/04/19 00:14:57;;;;;;;;;;;4.00;99.90;;;;;;5113629;28;19920;-72
2022/04/19 00:17:23;;;;;;;;;;;4.00;99.90;;;;;;5132240;28;20355;-72
2022/04/19 00:19:48;;;;;;;;;;;4.00;99.90;;;;;;5113670;28;20371;-72
2022/04/19 00:22:14;;;;;;;;;;;3.90;99.90;;;;;;5132990;27;20286;-72
2022/04/19 00:24:40;;;;;;;;;;;3.90;99.90;;;;;;5136649;27;19920;-72
2022/04/19 00:27:05;;;;;;;;;;;3.90;99.90;;;;;;5136427;27;19908;-72
2022/04/19 00:29:31;;;;;;;;;;;3.80;99.90;;;;;;5118121;27;19916;-72
2022/04/19 00:31:56;;;;;;;;;;;3.80;99.90;;;;;;5117739;27;19912;-72
2022/04/19 00:34:22;;;;;;;;;;;3.80;99.90;;;;;;5136255;27;20377;-73
2022/04/19 00:36:47;;;;;;;;;;;3.90;99.90;;;;;;5136114;27;19912;-72
2022/04/19 00:39:13;;;;;;;;;;;3.80;99.90;;;;;;5136121;27;19920;-72
2022/04/19 00:41:38;;;;;;;;;;;3.80;99.90;;;;;;5136141;27;20255;-72
2022/04/19 00:44:04;;;;;;;;;;;3.80;99.90;;;;;;5117548;27;19908;-72
2022/04/19 00:46:30;;;;;;;;;;;3.70;99.90;;;;;;5136183;27;19917;-72
2022/04/19 00:48:56;;;;;;;;;;;3.80;99.90;;;;;;5136179;27;20343;-72
2022/04/19 00:51:23;;;;;;;;;;;3.70;99.90;;;;;;5136028;27;19931;-73
2022/04/19 00:53:49;;;;;;;;;;;3.70;99.90;;;;;;5136019;27;19923;-72
2022/04/19 00:56:15;;;;;;;;;;;3.60;99.90;;;;;;5117236;27;19964;-72
2022/04/19 00:58:40;;;;;;;;;;;3.60;99.90;;;;;;5135905;27;19915;-72
2022/04/19 01:01:06;;;;;;;;;;;3.60;99.90;;;;;;5136158;27;19915;-72
2022/04/19 01:03:31;;;;;;;;;;;3.60;99.90;;;;;;5135577;27;19907;-72
2022/04/19 01:05:58;;;;;;;;;;;3.60;99.90;;;;;;5135830;27;19916;-72
2022/04/19 01:08:24;;;;;;;;;;;3.60;99.90;;;;;;5135339;27;20414;-72
2022/04/19 01:10:50;;;;;;;;;;;3.60;99.90;;;;;;5135841;27;19969;-72
2022/04/19 01:13:18;;;;;;;;;;;3.60;99.90;;;;;;5135413;27;19907;-73
2022/04/19 01:15:47;;;;;;;;;;;3.60;99.90;;;;;;5116765;27;19918;-72
2022/04/19 01:18:20;;;;;;;;;;;3.60;99.90;;;;;;5135432;27;19911;-72
2022/04/19 01:20:48;;;;;;;;;;;3.60;99.90;;;;;;5135714;27;19956;-72
2022/04/19 01:23:13;;;;;;;;;;;3.60;99.90;;;;;;5135491;27;19967;-72
2022/04/19 01:25:39;;;;;;;;;;;3.60;99.90;;;;;;5135148;27;19911;-72
2022/04/19 01:28:04;;;;;;;;;;;3.60;99.90;;;;;;5135314;27;19918;-72
2022/04/19 01:30:31;;;;;;;;;;;3.60;99.90;;;;;;5116572;27;20002;-73
2022/04/19 01:32:57;;;;;;;;;;;3.60;99.90;;;;;;5135110;27;19998;-72
2022/04/19 01:35:23;;;;;;;;;;;3.70;99.90;;;;;;5115679;27;19915;-73
2022/04/19 01:37:49;;;;;;;;;;;3.60;99.90;;;;;;5134987;27;19965;-72
2022/04/19 01:40:18;;;;;;;;;;;3.50;99.90;;;;;;5135289;27;19912;-72
2022/04/19 01:42:45;;;;;;;;;;;3.50;99.90;;;;;;5135015;27;20320;-72
2022/04/19 01:45:15;;;;;;;;;;;3.50;99.90;;;;;;5135361;27;19915;-72
2022/04/19 01:47:42;;;;;;;;;;;3.50;99.90;;;;;;5135058;27;19912;-72
2022/04/19 01:50:09;;;;;;;;;;;3.50;99.90;;;;;;5116514;27;19912;-72
2022/04/19 01:52:36;;;;;;;;;;;3.40;99.90;;;;;;5116517;27;19999;-72
2022/04/19 01:55:02;;;;;;;;;;;3.40;99.90;;;;;;5134975;27;19919;-72
2022/04/19 01:57:28;;;;;;;;;;;3.50;99.90;;;;;;5134609;27;19919;-71
2022/04/19 01:59:53;;;;;;;;;;;3.50;99.90;;;;;;5134854;27;19996;-71
2022/04/19 02:02:19;;;;;;;;;;;3.40;99.90;;;;;;5134466;27;19916;-71
2022/04/19 02:04:44;;;;;;;;;;;3.40;99.90;;;;;;5134617;27;20044;-71
2022/04/19 02:07:10;;;;;;;;;;;3.40;99.90;;;;;;5134232;27;20018;-71
2022/04/19 02:09:35;;;;;;;;;;;3.40;99.90;;;;;;5134434;27;20344;-71
2022/04/19 02:12:01;;;;;;;;;;;3.30;99.90;;;;;;5134309;27;19958;-71
2022/04/19 02:14:27;;;;;;;;;;;3.30;99.90;;;;;;5134289;27;20018;-71
2022/04/19 02:16:53;;;;;;;;;;;3.30;99.90;;;;;;5115681;27;19914;-71
2022/04/19 02:19:18;;;;;;;;;;;3.30;99.90;;;;;;5134457;27;19916;-71
2022/04/19 02:21:45;;;;;;;;;;;3.40;99.90;;;;;;5134185;27;19908;-71
2022/04/19 02:24:10;;;;;;;;;;;3.30;99.90;;;;;;5134447;27;20403;-71
2022/04/19 02:26:36;;;;;;;;;;;3.30;99.90;;;;;;5134175;27;19914;-72
2022/04/19 02:29:01;;;;;;;;;;;3.30;99.90;;;;;;5134575;27;20374;-71
2022/04/19 02:31:27;;;;;;;;;;;3.30;99.90;;;;;;5133964;27;19907;-72
2022/04/19 02:33:54;;;;;;;;;;;3.30;99.90;;;;;;5134067;27;19912;-71
2022/04/19 02:36:19;;;;;;;;;;;3.30;99.90;;;;;;5133827;27;20374;-71
2022/04/19 02:38:45;;;;;;;;;;;3.30;99.90;;;;;;5133907;27;19908;-72
2022/04/19 02:41:10;;;;;;;;;;;3.30;99.90;;;;;;5134289;27;20347;-72
2022/04/19 02:43:36;;;;;;;;;;;3.30;99.90;;;;;;5133889;27;19907;-72
2022/04/19 02:46:01;;;;;;;;;;;3.30;99.90;;;;;;5133150;27;19915;-72
2022/04/19 02:48:30;;;;;;;;;;;3.20;99.90;;;;;;5133756;27;19914;-71
2022/04/19 02:50:56;;;;;;;;;;;3.30;99.90;;;;;;5115123;27;19923;-70
2022/04/19 02:53:21;;;;;;;;;;;3.20;99.90;;;;;;5115165;27;20398;-70
2022/04/19 02:55:48;;;;;;;;;;;3.20;99.90;;;;;;5134060;27;19939;-73
2022/04/19 02:58:13;;;;;;;;;;;3.20;99.90;;;;;;5133368;27;20401;-71
2022/04/19 03:00:39;;;;;;;;;;;3.20;99.90;;;;;;5133628;27;19984;-71
2022/04/19 03:03:05;;;;;;;;;;;3.30;99.90;;;;;;5133260;27;19915;-71
2022/04/19 03:05:33;;;;;;;;;;;3.30;99.90;;;;;;5133598;27;19919;-71
2022/04/19 03:07:59;;;;;;;;;;;3.30;99.90;;;;;;5133613;27;19911;-71
2022/04/19 03:10:24;;;;;;;;;;;3.30;99.90;;;;;;5133494;27;19930;-71
2022/04/19 03:12:52;;;;;;;;;;;3.20;99.90;;;;;;5133380;27;19911;-71
2022/04/19 03:15:18;;;;;;;;;;;3.20;99.90;;;;;;5133369;27;19919;-72
2022/04/19 03:17:43;;;;;;;;;;;3.20;99.90;;;;;;5133020;27;19911;-71
2022/04/19 03:20:09;;;;;;;;;;;3.20;99.90;;;;;;5132856;27;19915;-71
2022/04/19 03:28:04;;;;;;;;;;;3.20;99.90;;;;;;5132967;27;19960;-71
2022/04/19 03:30:29;;;;;;;;;;;3.30;99.90;;;;;;5133258;27;20159;-73
2022/04/19 03:32:55;;;;;;;;;;;3.30;99.90;;;;;;5132700;27;19912;-73
2022/04/19 03:35:20;;;;;;;;;;;3.30;99.90;;;;;;5133014;27;19964;-70
2022/04/19 03:37:46;;;;;;;;;;;3.30;99.90;;;;;;5132635;27;20287;-71
2022/04/19 03:40:12;;;;;;;;;;;3.40;99.90;;;;;;5114276;28;20025;-72
2022/04/19 03:42:40;;;;;;;;;;;3.40;99.90;;;;;;5132597;27;19908;-72
2022/04/19 03:45:06;;;;;;;;;;;3.40;99.90;;;;;;5132681;27;20407;-72
2022/04/19 03:47:34;;;;;;;;;;;3.30;99.90;;;;;;5132512;27;19907;-72
2022/04/19 03:50:00;;;;;;;;;;;3.30;99.90;;;;;;5133094;27;19915;-72
2022/04/19 03:52:26;;;;;;;;;;;3.40;99.90;;;;;;5132805;27;19973;-72
2022/04/19 03:54:52;;;;;;;;;;;3.40;99.90;;;;;;5132599;27;20367;-72
2022/04/19 03:57:18;;;;;;;;;;;3.40;99.90;;;;;;5131908;27;19980;-72
2022/04/19 03:59:43;;;;;;;;;;;3.40;99.90;;;;;;5132728;27;19998;-72
2022/04/19 04:02:09;;;;;;;;;;;3.40;99.90;;;;;;5132338;27;19919;-72
2022/04/19 04:04:36;;;;;;;;;;;3.40;99.90;;;;;;5132683;27;20363;-71
2022/04/19 04:07:05;;;;;;;;;;;3.40;99.90;;;;;;5132578;27;19935;-72
2022/04/19 04:09:32;;;;;;;;;;;3.50;99.90;;;;;;5132138;27;19973;-72
2022/04/19 04:12:05;;;;;;;;;;;3.50;99.90;;;;;;5132211;28;19914;-72
2022/04/19 04:14:37;;;;;;;;;;;3.60;99.90;;;;;;5132026;28;20339;-72
2022/04/19 04:17:03;;;;;;;;;;;3.50;99.90;;;;;;5132033;28;19907;-71
2022/04/19 04:19:29;;;;;;;;;;;3.50;99.90;;;;;;5132114;28;19964;-72
2022/04/19 04:21:54;;;;;;;;;;;3.50;99.90;;;;;;5132180;28;19907;-71
2022/04/19 04:24:20;;;;;;;;;;;3.60;99.90;;;;;;5132060;28;19923;-72
2022/04/19 04:26:45;;;;;;;;;;;3.60;99.90;;;;;;5131956;28;20002;-71
2022/04/19 04:29:11;;;;;;;;;;;3.60;99.90;;;;;;5132117;28;20386;-72
2022/04/19 04:31:38;;;;;;;;;;;3.70;99.90;;;;;;5113644;28;20786;-71
2022/04/19 04:34:04;;;;;;;;;;;3.70;99.90;;;;;;5132139;28;19912;-72
2022/04/19 04:36:29;;;;;;;;;;;3.80;99.90;;;;;;5113645;28;19907;-72
2022/04/19 04:38:55;;;;;;;;;;;3.90;99.90;;;;;;5131982;28;20014;-72
2022/04/19 04:41:20;;;;;;;;;;;3.90;99.90;;;;;;5132262;28;20266;-71
2022/04/19 04:43:46;;;;;;;;;;;3.90;99.90;;;;;;5131928;28;20355;-72
2022/04/19 04:51:39;;;;;;;;;;;3.90;99.90;;;;;;5132014;28;19914;-72
2022/04/19 04:54:05;;;;;;;;;;;5.00;99.90;;;;;;5131850;28;20375;-72
2022/04/19 04:56:30;;;;;;;;;;;3.80;99.90;;;;;;5113397;28;19998;-72
2022/04/19 04:58:56;;;;;;;;;;;3.90;99.90;;;;;;5131781;28;19908;-72
2022/04/19 05:01:21;;;;;;;;;;;4.00;99.90;;;;;;5113224;28;20247;-72
2022/04/19 05:03:47;;;;;;;;;;;4.00;99.90;;;;;;5131851;28;19949;-72
2022/04/19 05:06:12;;;;;;;;;;;4.00;99.90;;;;;;5132151;28;20351;-73
2022/04/19 05:08:38;;;;;;;;;;;4.10;99.90;;;;;;5131486;27;19996;-72
2022/04/19 05:11:03;;;;;;;;;;;4.20;99.90;;;;;;5135581;27;19926;-72
2022/04/19 05:13:29;;;;;;;;;;;4.20;99.90;;;;;;5135329;27;19911;-73
2022/04/19 05:15:54;;;;;;;;;;;4.20;99.90;;;;;;5135960;27;20379;-72
2022/04/19 05:18:20;;;;;;;;;;;4.50;99.90;;;;;;5116935;27;19942;-72
2022/04/19 05:20:45;;;;;;;;;;;4.30;99.90;;;;;;5135627;27;19938;-72
2022/04/19 05:23:11;;;;;;;;;;;4.20;99.90;;;;;;5135633;27;19919;-72
2022/04/19 05:25:36;;;;;;;;;;;4.20;99.90;;;;;;5135689;27;19972;-73
2022/04/19 05:28:02;;;;;;;;;;;4.30;99.90;;;;;;5135404;27;19959;-71
2022/04/19 05:30:28;;;;;;;;;;;4.30;99.90;;;;;;5135439;27;19916;-71
2022/04/19 05:32:53;;;;;;;;;;;4.40;99.90;;;;;;5135455;27;19919;-71
2022/04/19 05:35:19;;;;;;;;;;;4.50;99.90;;;;;;5135375;27;19920;-71
2022/04/19 05:37:45;;;;;;;;;;;4.50;99.90;;;;;;5135271;27;19907;-71
2022/04/19 05:40:11;;;;;;;;;;;4.60;99.90;;;;;;5134979;27;19923;-72
2022/04/19 05:42:36;;;;;;;;;;;4.60;99.90;;;;;;5134925;27;19908;-71
2022/04/19 05:45:02;;;;;;;;;;;4.70;99.90;;;;;;5135201;27;20199;-71
2022/04/19 05:47:28;;;;;;;;;;;4.70;99.90;;;;;;5116326;27;20244;-71
2022/04/19 05:49:53;;;;;;;;;;;4.70;99.90;;;;;;5135109;27;19937;-71
2022/04/19 05:52:19;;;;;;;;;;;4.80;99.90;;;;;;5116493;27;19908;-71
2022/04/19 05:54:44;;;;;;;;;;;4.70;99.90;;;;;;5134538;27;19920;-72
2022/04/19 05:57:10;;;;;;;;;;;4.70;99.90;;;;;;5116057;27;19912;-72
2022/04/19 05:59:35;;;;;;;;;;;4.70;99.90;;;;;;5134387;27;20375;-71
2022/04/19 06:04:56;;;;;;;;;;;4.60;99.90;;;;;;5134955;27;19926;-73
2022/04/19 06:07:22;;;;;;;;;;;4.60;99.90;;;;;;5134521;27;19947;-72
2022/04/19 06:09:47;;;;;;;;;;;4.70;99.90;;;;;;5115668;27;19931;-72
2022/04/19 06:12:13;;;;;;;;;;;4.70;99.90;;;;;;5134503;27;19914;-72
2022/04/19 06:14:39;;;;;;;;;;;4.70;99.90;;;;;;5134294;27;20321;-72
2022/04/19 06:17:05;;;;;;;;;;;4.80;99.90;;;;;;5134251;27;19959;-72
2022/04/19 06:19:30;;;;;;;;;;;4.70;99.90;;;;;;5134347;27;19919;-71
2022/04/19 06:21:56;;;;;;;;;;;4.80;99.90;;;;;;5133946;27;19907;-72
2022/04/19 06:24:22;;;;;;;;;;;4.80;99.90;;;;;;5134166;27;19915;-71
2022/04/19 06:26:48;;;;;;;;;;;4.80;99.90;;;;;;5115462;27;19907;-71
2022/04/19 06:29:14;;;;;;;;;;;4.80;99.90;;;;;;5134285;27;19920;-72
2022/04/19 06:31:40;;;;;;;;;;;4.90;99.90;;;;;;5134369;27;20248;-72
2022/04/19 06:34:07;;;;;;;;;;;5.00;99.90;;;;;;5115861;27;19919;-72
2022/04/19 06:36:32;;;;;;;;;;;5.00;99.90;;;;;;5134245;27;19914;-72
2022/04/19 06:38:57;;;;;;;;;;;5.10;99.90;;;;;;5133910;27;20406;-71
2022/04/19 06:41:23;;;;;;;;;;;5.10;99.90;;;;;;5133749;27;19934;-71
2022/04/19 06:43:48;;;;;;;;;;;5.20;99.90;;;;;;5134000;27;19919;-72
2022/04/19 06:46:15;;;;;;;;;;;5.20;99.90;;;;;;5134076;27;20366;-72
2022/04/19 06:48:41;;;;;;;;;;;5.40;99.90;;;;;;5133638;27;19915;-71
2022/04/19 06:51:07;;;;;;;;;;;5.70;99.90;;;;;;5115170;27;19915;-72
2022/04/19 06:53:32;;;;;;;;;;;5.90;99.90;;;;;;5133400;27;19922;-72
2022/04/19 06:55:58;;;;;;;;;;;6.10;99.90;;;;;;5133763;27;19919;-73
2022/04/19 06:58:23;;;;;;;;;;;6.20;99.90;;;;;;5133494;27;19969;-73
2022/04/19 07:00:49;;;;;;;;;;;6.30;99.90;;;;;;5133676;27;19926;-72
2022/04/19 07:03:14;;;;;;;;;;;6.50;99.90;;;;;;5133096;27;19911;-73
2022/04/19 07:05:40;;;;;;;;;;;6.40;99.90;;;;;;5114541;27;19951;-74
2022/04/19 07:08:07;;;;;;;;;;;6.20;99.90;;;;;;5133011;27;19911;-72
2022/04/19 07:10:33;;;;;;;;;;;6.20;99.90;;;;;;5133289;27;19930;-73
2022/04/19 07:13:03;;;;;;;;;;;6.00;99.90;;;;;;5133555;27;19930;-72
2022/04/19 07:15:29;;;;;;;;;;;6.00;99.90;;;;;;5114451;27;19976;-73
2022/04/19 07:17:54;;;;;;;;;;;5.90;99.90;;;;;;5133109;27;19916;-73
2022/04/19 07:28:35;;;;;;;;;;;5.80;99.90;;;;;;5133102;27;19972;-72
2022/04/19 07:31:04;;;;;;;;;;;5.80;99.90;;;;;;5133244;27;20335;-73
2022/04/19 07:33:37;;;;;;;;;;;5.70;99.90;;;;;;5131987;27;19956;-73
2022/04/19 07:36:03;;;;;;;;;;;5.70;99.90;;;;;;5113987;27;19922;-72
2022/04/19 07:38:29;;;;;;;;;;;5.70;99.90;;;;;;5114217;27;19911;-72
2022/04/19 07:40:54;;;;;;;;;;;5.70;99.90;;;;;;5132964;27;19915;-72
2022/04/19 07:43:20;;;;;;;;;;;5.80;99.90;;;;;;5132818;27;19911;-72
2022/04/19 07:45:45;;;;;;;;;;;5.80;99.90;;;;;;5132553;27;19919;-73
2022/04/19 07:48:12;;;;;;;;;;;5.80;99.90;;;;;;5132456;27;19912;-73
2022/04/19 07:50:39;;;;;;;;;;;5.80;99.90;;;;;;5132326;27;20477;-73
2022/04/19 07:53:05;;;;;;;;;;;5.70;99.90;;;;;;5114094;27;19914;-73
2022/04/19 07:55:30;;;;;;;;;;;5.80;99.90;;;;;;5132546;27;20140;-73
2022/04/19 07:57:56;;;;;;;;;;;5.90;99.90;;;;;;5113661;27;20038;-72
2022/04/19 08:00:22;;;;;;;;;;;5.90;99.90;;;;;;5132472;27;19919;-73
2022/04/19 08:02:47;;;;;;;;;;;5.90;99.90;;;;;;5131802;27;19911;-73
2022/04/19 08:05:13;;;;;;;;;;;5.90;99.90;;;;;;5132446;27;19930;-73
2022/04/19 08:07:38;;;;;;;;;;;5.90;99.90;;;;;;5131970;27;20054;-72
2022/04/19 08:10:05;;;;;;;;;;;5.90;99.90;;;;;;5132270;27;19931;-73
2022/04/19 08:12:31;;;;;;;;;;;5.90;99.90;;;;;;5131942;27;19911;-72
2022/04/19 08:14:57;;;;;;;;;;;5.90;99.90;;;;;;5132083;28;19945;-73
2022/04/19 08:17:22;;;;;;;;;;;5.90;99.90;;;;;;5132001;28;19913;-72
2022/04/19 08:19:48;;;;;;;;;;;5.90;99.90;;;;;;5132214;28;19916;-73
2022/04/19 08:22:14;;;;;;;;;;;5.90;99.90;;;;;;5131953;28;20255;-73
2022/04/19 08:24:40;;;;;;;;;;;5.90;99.90;;;;;;5132288;28;20274;-73
2022/04/19 08:27:05;;;;;;;;;;;5.90;99.90;;;;;;5113653;28;19907;-73
2022/04/19 08:29:31;;;;;;;;;;;6.00;99.90;;;;;;5131878;28;19919;-72
2022/04/19 08:31:56;;;;;;;;;;;6.00;99.90;;;;;;5113383;28;20259;-73
2022/04/19 08:34:22;;;;;;;;;;;6.00;99.90;;;;;;5131878;28;19919;-72
2022/04/19 08:36:47;;;;;;;;;;;6.00;99.90;;;;;;5131839;28;19977;-72
2022/04/19 08:39:13;;;;;;;;;;;6.90;99.90;;;;;;5131816;28;19923;-72
2022/04/19 08:41:41;;;;;;;;;;;6.20;99.90;;;;;;5113363;28;20022;-73
2022/04/19 08:44:08;;;;;;;;;;;6.20;99.90;;;;;;5134106;27;19907;-73
2022/04/19 08:46:37;;;;;;;;;;;6.20;99.90;;;;;;5135865;27;19986;-73
2022/04/19 08:49:05;;;;;;;;;;;6.70;99.90;;;;;;5135814;27;20279;-73
2022/04/19 08:51:34;;;;;;;;;;;6.30;99.90;;;;;;5135315;27;19915;-73
2022/04/19 08:59:32;;;;;;;;;;;6.30;99.90;;;;;;5135626;27;19922;-73
2022/04/19 09:01:58;;;;;;;;;;;6.30;99.90;;;;;;5117059;27;19911;-72
2022/04/19 09:04:25;;;;;;;;;;;6.40;99.90;;;;;;5099982;27;19990;-72
2022/04/19 09:06:52;;;;;;;;;;;6.40;99.90;;;;;;5116835;27;19916;-72
2022/04/19 09:09:20;;;;;;;;;;;6.30;99.90;;;;;;5135366;27;20398;-72
2022/04/19 09:11:45;;;;;;;;;;;6.30;99.90;;;;;;5116661;27;19908;-72
2022/04/19 09:14:10;;;;;;;;;;;6.40;99.90;;;;;;5116713;27;19976;-72
2022/04/19 09:16:36;;;;;;;;;;;6.10;99.90;;;;;;5117024;27;19915;-73
2022/04/19 09:19:02;;;;;;;;;;;6.50;99.90;;;;;;5135362;27;19952;-72
2022/04/19 09:21:40;;;;;;;;;;;6.60;99.90;;;;;;5134962;27;19979;-72
2022/04/19 09:24:21;;;;;;;;;;;6.80;99.90;;;;;;5134928;27;19907;-73
2022/04/19 09:26:48;;;;;;;;;;;6.90;99.90;;;;;;5135277;27;19911;-73
2022/04/19 09:29:26;;;;;;;;;;;6.90;99.90;;;;;;5135052;27;20274;-72
2022/04/19 09:31:53;;;;;;;;;;;7.00;99.90;;;;;;5135105;27;19911;-74
2022/04/19 09:34:22;;;;;;;;;;;7.00;99.90;;;;;;5135022;27;20368;-73
2022/04/19 09:36:51;;;;;;;;;;;7.00;99.90;;;;;;5116292;27;19907;-73
2022/04/19 09:39:27;;;;;;;;;;;7.00;99.90;;;;;;5116499;27;19964;-73
2022/04/19 09:41:59;;;;;;;;;;;7.00;99.90;;;;;;5134622;27;20333;-73
2022/04/19 09:44:25;;;;;;;;;;;6.90;99.90;;;;;;5134814;27;19923;-73
2022/04/19 09:47:04;;;;;;;;;;;7.00;99.90;;;;;;5134677;27;20610;-74
2022/04/19 09:49:48;;;;;;;;;;;7.00;99.90;;;;;;5134614;27;19916;-72
2022/04/19 09:52:36;;;;;;;;;;;7.00;99.90;;;;;;5116034;27;19912;-72
2022/04/19 09:55:03;;;;;;;;;;;7.10;99.90;;;;;;5133815;27;19971;-72
2022/04/19 09:57:31;;;;;;;;;;;7.10;99.90;;;;;;5134402;27;20002;-73
2022/04/19 09:59:56;;;;;;;;;;;7.00;99.90;;;;;;5115806;27;19919;-72
2022/04/19 10:10:36;;;;;;;;;;;7.00;99.90;;;;;;5134478;27;20026;-71
2022/04/19 10:13:03;;;;;;;;;;;7.00;99.90;;;;;;5134266;27;19958;-72
2022/04/19 10:15:30;;;;;;;;;;;7.00;99.90;;;;;;5134350;27;19919;-72
2022/04/19 10:17:56;;;;;;;;;;;6.90;99.90;;;;;;5134082;27;20335;-71
2022/04/19 10:20:31;;;;;;;;;;;6.90;99.90;;;;;;5134428;27;19916;-73
2022/04/19 10:23:01;;;;;;;;;;;7.00;99.90;;;;;;5115439;27;19956;-72
2022/04/19 10:25:35;;;;;;;;;;;7.10;99.90;;;;;;5115491;27;19919;-72
2022/04/19 10:28:04;;;;;;;;;;;7.20;99.90;;;;;;5115605;27;19907;-72
2022/04/19 10:30:33;;;;;;;;;;;7.30;99.90;;;;;;5134191;27;20018;-74
2022/04/19 10:32:58;;;;;;;;;;;7.30;99.90;;;;;;5115310;27;19907;-73
2022/04/19 10:35:24;;;;;;;;;;;7.30;99.90;;;;;;5134003;27;19931;-73
2022/04/19 10:38:08;;;;;;;;;;;7.30;99.90;;;;;;5115625;27;19911;-73
2022/04/19 10:40:49;;;;;;;;;;;7.30;99.90;;;;;;5133968;27;19940;-73
2022/04/19 10:43:15;;;;;;;;;;;7.40;99.90;;;;;;5133646;27;19912;-73
2022/04/19 10:45:41;;;;;;;;;;;7.40;99.90;;;;;;5133978;27;20150;-74
2022/04/19 10:48:07;;;;;;;;;;;7.50;99.90;;;;;;5133625;27;19918;-73
2022/04/19 10:50:33;;;;;;;;;;;7.50;99.90;;;;;;5133797;27;20263;-73
2022/04/19 10:53:03;;;;;;;;;;;7.50;99.90;;;;;;5115000;27;20274;-73
2022/04/19 10:55:30;;;;;;;;;;;7.60;99.90;;;;;;5133185;27;19924;-73
2022/04/19 10:58:17;;;;;;;;;;;7.60;99.90;;;;;;5133326;27;19907;-74
2022/04/19 11:00:56;;;;;;;;;;;7.60;99.90;;;;;;5133754;27;20275;-71
2022/04/19 11:03:27;;;;;;;;;;;7.60;99.90;;;;;;5133486;27;19998;-73
2022/04/19 11:05:54;;;;;;;;;;;7.50;99.90;;;;;;5133673;27;19915;-73
2022/04/19 11:08:25;;;;;;;;;;;7.50;99.90;;;;;;5132170;27;19908;-73
2022/04/19 11:10:53;;;;;;;;;;;8.40;99.90;;;;;;5133048;27;19923;-74
2022/04/19 11:13:19;;;;;;;;;;;7.50;99.90;;;;;;5133213;27;20002;-73
2022/04/19 11:16:03;;;;;;;;;;;7.60;99.90;;;;;;5114745;27;20014;-73
2022/04/19 11:18:33;;;;;;;;;;;7.80;99.90;;;;;;5114530;27;19923;-72
2022/04/19 11:21:00;;;;;;;;;;;7.90;99.90;;;;;;5114560;27;19926;-73
2022/04/19 11:23:26;;;;;;;;;;;7.90;99.90;;;;;;5132963;27;20035;-73
2022/04/19 11:25:55;;;;;;;;;;;7.90;99.90;;;;;;5133318;27;19915;-73
2022/04/19 11:28:21;;;;;;;;;;;7.90;99.90;;;;;;5132896;27;20418;-73
2022/04/19 11:30:49;;;;;;;;;;;7.90;99.90;;;;;;5133213;27;19951;-73
2022/04/19 11:33:21;;;;;;;;;;;8.10;99.90;;;;;;5132881;27;19907;-73
2022/04/19 11:36:22;;;;;;;;;;;8.10;99.90;;;;;;5132984;27;19923;-73
2022/04/19 11:38:49;;;;;;;;;;;8.20;99.90;;;;;;5029431;28;20559;-73
2022/04/19 11:46:59;;;;;;;;;;;8.60;99.90;;;;;;5108094;27;20313;-73
2022/04/19 11:49:25;;;;;;;;;;;8.80;99.90;;;;;;5132414;27;19968;-73
2022/04/19 11:51:52;;;;;;;;;;;8.90;99.90;;;;;;5113976;27;19922;-73
2022/04/19 11:54:19;;;;;;;;;;;8.80;99.90;;;;;;5113964;28;19923;-74
2022/04/19 11:56:44;;;;;;;;;;;8.70;99.90;;;;;;5132378;27;19907;-73
2022/04/19 11:59:10;;;;;;;;;;;8.60;99.90;;;;;;5114047;27;19914;-73
2022/04/19 12:01:36;;;;;;;;;;;8.60;99.90;;;;;;5132274;27;19914;-73
2022/04/19 12:04:11;;;;;;;;;;;8.40;99.90;;;;;;5132300;27;19930;-73
2022/04/19 12:06:36;;;;;;;;;;;8.30;99.90;;;;;;5113794;27;19973;-73
2022/04/19 12:09:02;;;;;;;;;;;8.20;99.90;;;;;;5113625;28;20008;-72
2022/04/19 12:11:28;;;;;;;;;;;8.20;99.90;;;;;;5132185;27;19918;-72
2022/04/19 12:13:54;;;;;;;;;;;8.20;99.90;;;;;;5132408;27;19909;-74
2022/04/19 12:16:39;;;;;;;;;;;8.30;99.90;;;;;;5132113;28;20356;-73
2022/04/19 12:19:09;;;;;;;;;;;8.40;99.90;;;;;;5136435;27;19907;-71
2022/04/19 12:21:38;;;;;;;;;;;8.50;99.90;;;;;;5120464;27;19960;-72
2022/04/19 12:24:05;;;;;;;;;;;8.50;99.90;;;;;;5139183;27;19912;-73
2022/04/19 12:26:30;;;;;;;;;;;8.60;99.90;;;;;;5138962;27;19923;-72
2022/04/19 12:29:05;;;;;;;;;;;8.60;99.90;;;;;;5138853;27;19930;-73
2022/04/19 12:31:35;;;;;;;;;;;8.50;99.90;;;;;;5138832;27;19926;-73
2022/04/19 12:34:01;;;;;;;;;;;8.60;99.90;;;;;;5138823;27;20382;-73
2022/04/19 12:36:27;;;;;;;;;;;8.60;99.90;;;;;;5138876;27;19918;-72
2022/04/19 12:39:01;;;;;;;;;;;8.60;99.90;;;;;;5138776;27;19907;-72
2022/04/19 12:41:33;;;;;;;;;;;8.50;99.90;;;;;;5138610;27;19942;-72
2022/04/19 12:44:00;;;;;;;;;;;8.40;99.90;;;;;;5138771;27;19907;-72
2022/04/19 12:46:26;;;;;;;;;;;8.40;99.90;;;;;;5138687;27;19911;-72
2022/04/19 12:48:56;;;;;;;;;;;8.40;99.90;;;;;;5120282;27;19923;-72
2022/04/19 12:51:24;;;;;;;;;;;8.40;99.90;;;;;;5120152;27;19919;-73
2022/04/19 12:54:02;;;;;;;;;;;8.40;99.90;;;;;;5138662;27;19972;-72
2022/04/19 12:59:12;;;;;;;;;;;8.30;99.90;;;;;;5138804;27;20061;-72
2022/04/19 13:01:38;;;;;;;;;;;8.30;99.90;;;;;;5138454;27;20002;-72
2022/04/19 13:04:03;;;;;;;;;;;8.30;99.90;;;;;;5120228;27;20359;-72
2022/04/19 13:14:42;;;;;;;;;;;8.40;99.90;;;;;;5138709;27;19931;-73
2022/04/19 13:17:07;;;;;;;;;;;8.40;99.90;;;;;;5138488;27;19911;-73
2022/04/19 13:19:33;;;;;;;;;;;8.40;99.90;;;;;;5138634;27;19917;-73
2022/04/19 13:21:58;;;;;;;;;;;8.50;99.90;;;;;;5119972;27;19908;-72
2022/04/19 13:24:24;;;;;;;;;;;7.90;99.90;;;;;;5119945;27;20375;-73
2022/04/19 13:26:49;;;;;;;;;;;8.50;99.90;;;;;;5119740;27;20156;-72
2022/04/19 13:29:15;;;;;;;;;;;8.50;99.90;;;;;;5138225;27;20392;-72
2022/04/19 13:31:40;;;;;;;;;;;8.50;99.90;;;;;;5134197;27;20003;-72
2022/04/19 13:34:06;;;;;;;;;;;8.60;99.90;;;;;;5135688;27;19911;-74
2022/04/19 13:36:32;;;;;;;;;;;8.50;99.90;;;;;;5116570;27;19908;-72
2022/04/19 13:38:57;;;;;;;;;;;8.50;99.90;;;;;;5134938;27;20045;-73
2022/04/19 13:41:23;;;;;;;;;;;8.50;99.90;;;;;;5134874;27;19956;-73
2022/04/19 13:43:48;;;;;;;;;;;8.50;99.90;;;;;;5116467;27;19951;-72
2022/04/19 13:46:14;;;;;;;;;;;8.60;99.90;;;;;;5134794;27;19930;-72
2022/04/19 13:48:39;;;;;;;;;;;8.50;99.90;;;;;;5134853;27;19953;-73
2022/04/19 13:51:05;;;;;;;;;;;8.50;99.90;;;;;;5099482;27;19916;-73
2022/04/19 13:53:32;;;;;;;;;;;8.40;99.90;;;;;;5116335;27;19907;-73
2022/04/19 13:55:58;;;;;;;;;;;8.40;99.90;;;;;;5135092;27;20417;-73
2022/04/19 13:58:24;;;;;;;;;;;8.30;99.90;;;;;;5134754;27;19907;-73
2022/04/19 14:00:49;;;;;;;;;;;8.20;99.90;;;;;;5116368;27;20776;-72
2022/04/19 14:03:15;;;;;;;;;;;8.20;99.90;;;;;;5116100;27;19907;-73
2022/04/19 14:05:40;;;;;;;;;;;8.20;99.90;;;;;;5134810;27;20128;-73
2022/04/19 14:08:06;;;;;;;;;;;8.10;99.90;;;;;;5134517;27;19908;-72
2022/04/19 14:10:32;;;;;;;;;;;8.10;99.90;;;;;;5134695;27;19934;-73
2022/04/19 14:12:57;;;;;;;;;;;8.10;99.90;;;;;;5134465;27;19907;-71
2022/04/19 14:15:23;;;;;;;;;;;8.10;99.90;;;;;;5134738;27;19967;-74
2022/04/19 14:17:48;;;;;;;;;;;8.10;99.90;;;;;;5134234;27;20385;-74
2022/04/19 14:20:14;;;;;;;;;;;8.10;99.90;;;;;;5134645;27;19915;-73
2022/04/19 14:22:39;;;;;;;;;;;8.10;99.90;;;;;;5134172;27;19907;-73
2022/04/19 14:25:05;;;;;;;;;;;8.10;99.90;;;;;;5134424;27;19916;-73
2022/04/19 14:27:30;;;;;;;;;;;8.00;99.90;;;;;;5134032;27;20362;-73
2022/04/19 14:35:26;;;;;;;;;;;7.90;99.90;;;;;;5134234;27;19926;-74
2022/04/19 14:37:51;;;;;;;;;;;7.80;99.90;;;;;;5133968;27;19915;-73
2022/04/19 14:40:17;;;;;;;;;;;7.80;99.90;;;;;;5134244;27;19916;-73
2022/04/19 14:42:44;;;;;;;;;;;7.70;99.90;;;;;;5133590;27;20374;-73
2022/04/19 14:45:12;;;;;;;;;;;7.70;99.90;;;;;;5134186;27;19973;-73
2022/04/19 14:47:38;;;;;;;;;;;7.70;99.90;;;;;;5133981;27;19915;-73
2022/04/19 14:50:04;;;;;;;;;;;7.80;99.90;;;;;;5115254;27;20362;-73
2022/04/19 14:52:29;;;;;;;;;;;7.70;99.90;;;;;;5133659;27;19911;-73
2022/04/19 14:54:55;;;;;;;;;;;7.60;99.90;;;;;;5133733;27;19922;-73
2022/04/19 14:57:22;;;;;;;;;;;7.70;99.90;;;;;;5133538;27;19915;-73
2022/04/19 14:59:47;;;;;;;;;;;7.60;99.90;;;;;;5133752;27;19918;-73
2022/04/19 15:02:14;;;;;;;;;;;7.60;99.90;;;;;;5114933;27;20371;-73
2022/04/19 15:04:40;;;;;;;;;;;7.60;99.90;;;;;;5115007;27;20010;-73
2022/04/19 15:07:05;;;;;;;;;;;7.60;99.90;;;;;;5114825;27;20403;-73
2022/04/19 15:09:31;;;;;;;;;;;7.60;99.90;;;;;;5133158;27;19927;-73
2022/04/19 15:12:03;;;;;;;;;;;7.60;99.90;;;;;;5114792;27;20398;-73
2022/04/19 15:14:30;;;;;;;;;;;7.50;99.90;;;;;;5115683;27;20490;-73
2022/04/19 15:16:59;;;;;;;;;;;7.40;99.90;;;;;;5133176;27;19998;-74
2022/04/19 15:19:24;;;;;;;;;;;7.40;99.90;;;;;;5133376;27;19955;-73
2022/04/19 15:21:50;;;;;;;;;;;7.40;99.90;;;;;;5133370;27;19954;-73
2022/04/19 15:24:16;;;;;;;;;;;7.40;99.90;;;;;;5132917;27;19927;-73
2022/04/19 15:26:45;;;;;;;;;;;7.30;99.90;;;;;;5132844;27;19911;-73